createdAt,value
2019-01-04T00:00:13.573Z,164.00
2019-01-04T00:02:42.275Z,152.93
2019-01-04T00:05:11.259Z,160.10
2019-01-04T00:07:39.973Z,154.80
2019-01-04T00:10:08.697Z,154.87
2019-01-04T00:12:38.738Z,146.33
2019-01-04T00:15:07.844Z,144.83
2019-01-04T00:17:36.555Z,136.23
2019-01-04T00:20:06.657Z,144.63
2019-01-04T00:22:35.355Z,135.87
2019-01-04T00:25:04.238Z,127.30
2019-01-04T00:27:35.194Z,128.17
2019-01-04T00:30:06.166Z,137.40
2019-01-04T00:32:34.896Z,141.30
2019-01-04T00:35:03.586Z,140.10
2019-01-04T00:37:33.927Z,133.17
2019-01-04T00:40:02.615Z,154.37
2019-01-04T00:42:31.317Z,155.60
2019-01-04T00:45:00.375Z,152.90
2019-01-04T00:47:29.044Z,146.27
2019-01-04T00:49:57.826Z,149.43
2019-01-04T00:52:29.031Z,149.67
2019-01-04T00:54:59.060Z,156.67
2019-01-04T00:57:55.244Z,151.70
2019-01-04T01:01:03.407Z,135.10
2019-01-04T01:04:08.861Z,145.20
2019-01-04T01:06:56.808Z,149.53
2019-01-04T01:09:43.490Z,146.03
2019-01-04T01:12:31.727Z,166.87
2019-01-04T01:15:20.012Z,155.20
2019-01-04T01:18:09.633Z,154.27
2019-01-04T01:21:05.601Z,149.37
2019-01-04T01:23:55.312Z,149.40
2019-01-04T01:26:43.560Z,136.00
2019-01-04T01:29:21.346Z,111.87
2019-01-04T01:31:54.982Z,117.60
2019-01-04T01:34:30.103Z,106.03
2019-01-04T01:37:24.526Z,124.27
2019-01-04T01:40:19.375Z,84.50
2019-01-04T01:43:07.556Z,97.83
2019-01-04T01:45:54.482Z,108.53
2019-01-04T01:48:24.704Z,99.70
2019-01-04T01:50:59.880Z,107.50
2019-01-04T01:53:40.291Z,107.47
2019-01-04T01:56:09.054Z,142.63
2019-01-04T01:58:38.927Z,168.60
2019-01-04T02:01:07.614Z,188.37
2019-01-04T02:03:36.382Z,173.33
2019-01-04T02:06:05.068Z,170.97
2019-01-04T02:08:33.852Z,167.37
2019-01-04T02:11:02.608Z,103.03
2019-01-04T02:13:31.288Z,91.90
2019-01-04T02:15:59.972Z,81.90
2019-01-04T02:18:28.666Z,89.57
2019-01-04T02:20:57.431Z,80.50
2019-01-04T02:23:26.136Z,93.53
2019-01-04T02:25:54.811Z,79.07
2019-01-04T02:28:25.083Z,86.70
2019-01-04T02:30:53.768Z,92.20
2019-01-04T02:33:23.484Z,101.73
2019-01-04T02:35:52.182Z,113.53
2019-01-04T02:38:20.884Z,111.03
2019-01-04T02:40:49.587Z,114.30
2019-01-04T02:43:18.303Z,120.70
2019-01-04T02:45:47.319Z,103.97
2019-01-04T02:48:16.007Z,105.70
2019-01-04T02:50:44.716Z,120.77
2019-01-04T02:53:13.399Z,105.77
2019-01-04T02:55:42.110Z,97.43
2019-01-04T02:58:11.388Z,100.73
2019-01-04T03:00:40.103Z,104.00
2019-01-04T03:03:08.828Z,88.60
2019-01-04T03:05:37.619Z,100.00
2019-01-04T03:08:06.301Z,118.87
2019-01-04T03:10:35.075Z,130.27
2019-01-04T03:13:03.760Z,142.37
2019-01-04T03:15:32.455Z,125.87
2019-01-04T03:18:01.158Z,102.83
2019-01-04T03:20:31.057Z,106.87
2019-01-04T03:23:00.759Z,101.23
2019-01-04T03:25:29.427Z,103.10
2019-01-04T03:27:58.151Z,219.60
2019-01-04T03:30:26.882Z,131.30
2019-01-04T03:32:55.624Z,252.57
2019-01-04T03:35:24.600Z,174.03
2019-01-04T03:37:53.297Z,166.87
2019-01-04T03:40:22.044Z,139.97
2019-01-04T03:42:51.855Z,165.27
2019-01-04T03:45:20.557Z,170.83
2019-01-04T03:47:49.298Z,153.60
2019-01-04T03:50:18.047Z,169.07
2019-01-04T03:52:46.717Z,111.97
2019-01-04T03:55:15.419Z,127.20
2019-01-04T03:57:44.098Z,123.63
2019-01-04T04:00:13.142Z,162.50
2019-01-04T04:02:41.868Z,160.13
2019-01-04T04:05:10.578Z,128.37
2019-01-04T04:07:39.364Z,150.33
2019-01-04T04:10:08.253Z,161.30
2019-01-04T04:12:37.016Z,276.00
2019-01-04T04:15:05.821Z,151.13
2019-01-04T04:17:34.522Z,94.13
2019-01-04T04:20:03.204Z,86.20
2019-01-04T04:22:31.943Z,75.20
2019-01-04T04:25:01.117Z,74.97
2019-01-04T04:27:29.804Z,73.33
2019-01-04T04:29:58.491Z,78.63
2019-01-04T04:32:27.188Z,84.67
2019-01-04T04:34:55.895Z,79.50
2019-01-04T04:37:24.660Z,76.07
2019-01-04T04:39:53.366Z,82.33
2019-01-04T04:42:22.078Z,78.43
2019-01-04T04:44:50.797Z,77.70
2019-01-04T04:47:19.883Z,74.23
2019-01-04T04:49:48.631Z,92.63
2019-01-04T04:52:17.416Z,70.13
2019-01-04T04:54:46.090Z,71.73
2019-01-04T04:57:14.843Z,78.30
2019-01-04T04:59:43.542Z,78.73
2019-01-04T05:02:12.609Z,83.27
2019-01-04T05:04:41.283Z,90.67
2019-01-04T05:07:09.985Z,87.07
2019-01-04T05:09:38.829Z,85.70
2019-01-04T05:12:07.490Z,83.80
2019-01-04T05:14:36.252Z,85.87
2019-01-04T05:17:04.979Z,79.13
2019-01-04T05:19:33.661Z,78.97
2019-01-04T05:22:02.383Z,64.27
2019-01-04T05:24:31.084Z,75.43
2019-01-04T05:26:59.845Z,70.00
2019-01-04T05:29:28.570Z,79.23
2019-01-04T05:32:00.536Z,78.63
2019-01-04T05:34:31.895Z,73.53
2019-01-04T05:37:00.656Z,71.17
2019-01-04T05:39:29.881Z,89.03
2019-01-04T05:41:58.639Z,78.00
2019-01-04T05:44:27.298Z,99.23
2019-01-04T05:46:57.741Z,89.17
2019-01-04T05:49:26.427Z,84.67
2019-01-04T05:51:55.206Z,89.80
2019-01-04T05:54:23.997Z,86.73
2019-01-04T05:56:52.882Z,98.23
2019-01-04T05:59:30.418Z,85.00
2019-01-04T06:02:00.697Z,92.63
2019-01-04T06:04:30.697Z,102.00
2019-01-04T06:06:59.411Z,99.57
2019-01-04T06:09:31.251Z,105.00
2019-01-04T06:12:00.216Z,85.43
2019-01-04T06:14:28.893Z,98.73
2019-01-04T06:16:57.669Z,71.93
2019-01-04T06:19:26.451Z,72.07
2019-01-04T06:21:55.150Z,103.43
2019-01-04T06:24:23.853Z,89.20
2019-01-04T06:26:52.555Z,92.03
2019-01-04T06:29:21.927Z,76.37
2019-01-04T06:31:50.622Z,93.87
2019-01-04T06:34:19.291Z,68.77
2019-01-04T06:36:47.987Z,73.43
2019-01-04T06:39:16.669Z,70.90
2019-01-04T06:41:45.400Z,62.80
2019-01-04T06:44:14.111Z,68.00
2019-01-04T06:46:58.184Z,51.43
2019-01-04T06:49:28.202Z,34.47
2019-01-04T06:51:56.941Z,45.03
2019-01-04T06:55:03.476Z,42.13
2019-01-04T06:57:32.678Z,57.47
2019-01-04T07:00:02.056Z,66.70
2019-01-04T07:02:34.272Z,38.83
2019-01-04T07:05:02.936Z,66.93
2019-01-04T07:07:31.681Z,50.40
2019-01-04T07:10:02.208Z,77.43
2019-01-04T07:12:33.153Z,63.00
2019-01-04T07:15:01.853Z,77.70
2019-01-04T07:17:33.289Z,48.07
2019-01-04T07:20:01.978Z,51.90
2019-01-04T07:22:32.173Z,39.40
2019-01-04T07:25:01.306Z,36.43
2019-01-04T07:27:39.815Z,38.73
2019-01-04T07:30:08.989Z,43.57
2019-01-04T07:32:38.739Z,37.27
2019-01-04T07:35:07.427Z,40.37
2019-01-04T07:37:41.149Z,36.47
2019-01-04T07:40:10.506Z,27.50
2019-01-04T07:42:40.214Z,33.63
2019-01-04T07:45:11.236Z,33.87
2019-01-04T07:47:39.998Z,32.70
2019-01-04T07:50:09.227Z,37.07
2019-01-04T07:52:43.484Z,27.33
2019-01-04T07:55:12.304Z,28.07
2019-01-04T07:57:42.697Z,26.10
2019-01-04T08:00:12.556Z,27.17
2019-01-04T08:02:50.191Z,22.70
2019-01-04T08:05:19.413Z,24.83
2019-01-04T08:07:48.110Z,27.67
2019-01-04T08:10:16.855Z,33.30
2019-01-04T08:12:45.624Z,37.37
2019-01-04T08:15:17.515Z,41.30
2019-01-04T08:17:54.776Z,35.63
2019-01-04T08:23:18.242Z,35.07
2019-01-04T08:25:51.701Z,37.70
2019-01-04T08:28:18.968Z,33.57
2019-01-04T08:33:47.055Z,37.30
2019-01-04T08:36:15.740Z,30.57
2019-01-04T08:38:44.426Z,30.87
2019-01-04T08:41:13.145Z,34.37
2019-01-04T08:43:41.863Z,39.30
2019-01-04T08:46:10.551Z,44.23
2019-01-04T08:48:39.228Z,46.70
2019-01-04T08:51:07.947Z,34.07
2019-01-04T08:53:54.946Z,70.50
2019-01-04T08:56:24.677Z,40.53
2019-01-04T08:58:53.356Z,40.10
2019-01-04T09:01:22.058Z,35.77
2019-01-04T09:03:50.779Z,35.87
2019-01-04T09:06:19.498Z,75.57
2019-01-04T09:08:48.214Z,50.57
2019-01-04T09:11:16.923Z,42.03
2019-01-04T09:13:46.252Z,43.83
2019-01-04T09:16:15.359Z,39.63
2019-01-04T09:18:44.051Z,43.13
2019-01-04T09:21:13.810Z,48.47
2019-01-04T09:23:42.477Z,48.67
2019-01-04T09:26:13.886Z,39.03
2019-01-04T09:31:38.752Z,40.50
2019-01-04T09:34:16.276Z,38.87
2019-01-04T09:36:48.253Z,46.07
2019-01-04T09:39:19.781Z,44.23
2019-01-04T09:41:49.899Z,44.20
2019-01-04T09:44:18.659Z,47.10
2019-01-04T09:46:47.459Z,50.00
2019-01-04T09:49:17.547Z,50.67
2019-01-04T09:51:50.140Z,43.60
2019-01-04T09:54:18.903Z,43.03
2019-01-04T09:56:49.498Z,46.10
2019-01-04T09:59:18.730Z,44.20
2019-01-04T10:01:50.858Z,48.23
2019-01-04T10:04:19.610Z,47.57
2019-01-04T10:06:48.364Z,43.57
2019-01-04T10:09:17.119Z,49.60
2019-01-04T10:11:52.060Z,42.93
2019-01-04T10:14:29.220Z,45.17
2019-01-04T10:16:59.515Z,46.10
2019-01-04T10:19:28.340Z,40.97
2019-01-04T10:21:58.510Z,41.73
2019-01-04T10:24:27.168Z,42.03
2019-01-04T10:26:55.906Z,46.77
2019-01-04T10:29:26.202Z,39.53
2019-01-04T10:31:54.984Z,37.23
2019-01-04T10:34:23.668Z,36.63
2019-01-04T10:37:00.079Z,44.17
2019-01-04T10:39:29.481Z,37.27
2019-01-04T10:42:01.801Z,44.87
2019-01-04T10:44:35.795Z,47.47
2019-01-04T10:47:10.218Z,43.27
2019-01-04T10:49:41.815Z,37.17
2019-01-04T10:52:11.149Z,44.67
2019-01-04T10:54:45.528Z,38.70
2019-01-04T11:06:40.718Z,35.80
2019-01-04T11:09:11.041Z,33.27
2019-01-04T11:11:39.747Z,30.47
2019-01-04T11:14:08.487Z,32.53
2019-01-04T11:16:37.197Z,31.13
2019-01-04T11:19:05.929Z,28.60
2019-01-04T11:21:34.915Z,25.97
2019-01-04T11:24:12.938Z,24.33
2019-01-04T11:26:45.372Z,21.07
2019-01-04T11:29:20.673Z,19.40
2019-01-04T11:31:52.636Z,22.97
2019-01-04T11:34:41.746Z,26.67
2019-01-04T11:37:45.536Z,27.37
2019-01-04T11:40:22.645Z,26.13
2019-01-04T11:43:08.190Z,27.73
2019-01-04T11:45:59.255Z,30.50
2019-01-04T11:48:37.183Z,33.00
2019-01-04T11:51:18.170Z,31.90
2019-01-04T11:53:47.246Z,35.05
2019-01-04T11:56:17.489Z,37.07
2019-01-04T11:58:46.924Z,33.83
2019-01-04T12:01:15.657Z,30.63
2019-01-04T12:03:47.557Z,31.57
2019-01-04T12:06:18.128Z,35.57
2019-01-04T12:11:29.023Z,30.57
2019-01-04T12:13:59.362Z,27.63
2019-01-04T12:16:29.691Z,27.60
2019-01-04T12:19:14.308Z,26.70
2019-01-04T12:21:44.356Z,31.13
2019-01-04T12:24:13.198Z,26.73
2019-01-04T12:26:41.939Z,28.97
2019-01-04T12:29:16.777Z,29.67
2019-01-04T12:31:48.514Z,30.60
2019-01-04T12:34:37.053Z,24.57
2019-01-04T12:37:06.969Z,31.67
2019-01-04T12:39:37.726Z,31.27
2019-01-04T12:42:06.415Z,28.30
2019-01-04T12:44:35.173Z,31.50
2019-01-04T12:47:03.904Z,31.90
2019-01-04T12:49:32.784Z,29.20
2019-01-04T12:52:01.573Z,24.77
2019-01-04T12:54:30.264Z,29.70
2019-01-04T12:56:59.027Z,29.03
2019-01-04T12:59:27.736Z,24.20
2019-01-04T13:01:56.447Z,30.57
2019-01-04T13:04:25.192Z,29.23
2019-01-04T13:06:54.008Z,31.20
2019-01-04T13:09:26.866Z,24.57
2019-01-04T13:11:55.610Z,28.50
2019-01-04T13:14:24.535Z,27.30
2019-01-04T13:16:55.302Z,24.97
2019-01-04T13:19:25.744Z,26.33
2019-01-04T13:21:54.422Z,29.93
2019-01-04T13:24:23.297Z,25.10
2019-01-04T13:26:52.044Z,27.50
2019-01-04T13:29:21.079Z,26.53
2019-01-04T13:31:49.888Z,28.17
2019-01-04T13:34:18.699Z,30.60
2019-01-04T13:36:50.441Z,27.10
2019-01-04T13:39:19.182Z,29.53
2019-01-04T13:41:48.725Z,28.10
2019-01-04T13:44:19.062Z,30.43
2019-01-04T13:46:53.048Z,28.13
2019-01-04T13:49:25.623Z,33.37
2019-01-04T13:51:59.941Z,32.43
2019-01-04T13:54:28.763Z,32.37
2019-01-04T13:57:04.258Z,39.37
2019-01-04T13:59:35.426Z,33.63
2019-01-04T14:02:04.098Z,29.67
2019-01-04T14:04:33.411Z,34.33
2019-01-04T14:07:02.732Z,38.47
2019-01-04T14:09:33.233Z,38.07
2019-01-04T14:12:02.349Z,41.47
2019-01-04T14:14:32.766Z,36.27
2019-01-04T14:17:07.310Z,43.23
2019-01-04T14:19:35.919Z,45.57
2019-01-04T14:22:04.784Z,46.80
2019-01-04T14:24:33.949Z,49.97
2019-01-04T14:27:03.683Z,49.17
2019-01-04T14:29:33.976Z,57.37
2019-01-04T14:32:04.107Z,49.30
2019-01-04T14:34:33.011Z,59.73
2019-01-04T14:37:02.225Z,47.17
2019-01-04T14:39:31.026Z,54.23
2019-01-04T14:41:59.715Z,52.53
2019-01-04T14:44:29.798Z,50.43
2019-01-04T14:46:58.506Z,50.37
2019-01-04T14:49:29.255Z,49.33
2019-01-04T14:52:00.588Z,55.07
2019-01-04T14:54:35.406Z,61.47
2019-01-04T14:57:05.434Z,44.40
2019-01-04T14:59:34.135Z,60.43
2019-01-04T15:02:03.790Z,53.17
2019-01-04T15:04:32.666Z,59.37
2019-01-04T15:07:01.399Z,47.03
2019-01-04T15:09:30.124Z,45.63
2019-01-04T15:12:00.306Z,50.70
2019-01-04T15:14:29.770Z,49.47
2019-01-04T15:17:03.008Z,46.33
2019-01-04T15:19:31.814Z,46.90
2019-01-04T15:22:01.968Z,43.93
2019-01-04T15:24:31.190Z,41.10
2019-01-04T15:27:00.200Z,44.03
2019-01-04T15:29:29.593Z,44.47
2019-01-04T15:32:00.991Z,38.97
2019-01-04T15:34:30.833Z,41.60
2019-01-04T15:37:02.590Z,34.13
2019-01-04T15:39:32.079Z,37.37
2019-01-04T15:42:08.808Z,35.63
2019-01-04T15:44:41.554Z,36.47
2019-01-04T15:47:11.434Z,30.60
2019-01-04T15:49:44.785Z,29.47
2019-01-04T15:52:15.017Z,30.10
2019-01-04T15:54:48.737Z,30.90
2019-01-04T15:57:19.344Z,28.63
2019-01-04T15:59:55.627Z,28.20
2019-01-04T16:02:26.334Z,24.87
2019-01-04T16:04:56.671Z,28.33
2019-01-04T16:07:26.405Z,27.27
2019-01-04T16:09:57.905Z,27.07
2019-01-04T16:12:26.654Z,35.23
2019-01-04T16:14:55.703Z,31.20
2019-01-04T16:17:27.052Z,29.80
2019-01-04T16:20:03.104Z,25.67
2019-01-04T16:22:33.459Z,22.67
2019-01-04T16:25:03.394Z,20.50
2019-01-04T16:27:32.139Z,19.37
2019-01-04T16:30:01.812Z,20.20
2019-01-04T16:32:33.158Z,21.83
2019-01-04T16:35:02.356Z,22.00
2019-01-04T16:37:35.215Z,17.33
2019-01-04T16:40:05.350Z,14.63
2019-01-04T16:42:38.252Z,16.33
2019-01-04T16:45:07.823Z,16.03
2019-01-04T16:47:38.269Z,20.63
2019-01-04T16:50:07.099Z,18.20
2019-01-04T16:52:35.838Z,19.70
2019-01-04T16:55:05.899Z,20.37
2019-01-04T16:57:37.189Z,20.50
2019-01-04T17:00:24.888Z,20.33
2019-01-04T17:02:53.905Z,20.00
2019-01-04T17:05:23.067Z,18.17
2019-01-04T17:07:54.560Z,14.53
2019-01-04T17:10:35.515Z,19.53
2019-01-04T17:13:06.127Z,16.33
2019-01-04T17:15:35.474Z,18.87
2019-01-04T17:18:04.326Z,20.17
2019-01-04T17:20:33.012Z,22.80
2019-01-04T17:23:01.767Z,24.23
2019-01-04T17:25:35.978Z,25.07
2019-01-04T17:28:07.539Z,24.17
2019-01-04T17:39:39.151Z,30.57
2019-01-04T17:45:22.893Z,33.20
2019-01-04T17:48:05.106Z,37.90
2019-01-04T18:28:49.867Z,49.30
2019-01-04T19:35:30.802Z,25.80
2019-01-04T22:46:37.977Z,19.47
2019-01-04T22:49:31.909Z,16.53
2019-01-04T22:52:10.118Z,22.03
2019-01-04T22:54:47.713Z,19.30
2019-01-04T22:57:59.088Z,19.03
2019-01-04T23:00:36.126Z,18.83
2019-01-04T23:18:09.362Z,25.13
2019-01-04T23:23:53.792Z,29.77
2019-01-04T23:26:41.097Z,20.47
2019-01-04T23:32:40.068Z,22.23
2019-01-04T23:38:32.319Z,22.93
2019-01-04T23:41:23.626Z,28.43
2019-01-04T23:44:02.919Z,26.17
2019-01-04T23:46:49.330Z,25.87
2019-01-04T23:49:19.631Z,36.43
2019-01-04T23:51:56.581Z,36.83
2019-01-04T23:54:43.222Z,35.67
2019-01-04T23:57:22.809Z,47.17
